createdAt,value
2023-06-08T00:02:08.637Z,15.13
2023-06-08T00:04:35.466Z,15.06
2023-06-08T00:07:04.717Z,15.19
2023-06-08T00:09:31.549Z,15.19
2023-06-08T00:11:59.299Z,15.00
2023-06-08T00:14:26.311Z,15.06
2023-06-08T00:16:53.961Z,14.94
2023-06-08T00:19:20.764Z,15.00
2023-06-08T00:21:49.594Z,14.81
2023-06-08T00:24:20.273Z,14.69
2023-06-08T00:26:46.973Z,14.69
2023-06-08T00:29:13.753Z,14.50
2023-06-08T00:31:40.458Z,14.56
2023-06-08T00:34:07.259Z,14.69
2023-06-08T00:36:34.038Z,14.63
2023-06-08T00:39:00.879Z,14.44
2023-06-08T00:41:27.655Z,14.44
2023-06-08T00:43:54.284Z,14.31
2023-06-08T00:46:21.189Z,14.31
2023-06-08T00:48:47.982Z,14.31
2023-06-08T00:51:14.795Z,14.13
2023-06-08T00:53:42.447Z,14.25
2023-06-08T00:56:09.429Z,14.25
2023-06-08T00:58:38.470Z,14.19
2023-06-08T01:01:05.979Z,14.31
2023-06-08T01:03:39.456Z,14.19
2023-06-08T01:06:09.191Z,14.31
2023-06-08T01:08:58.475Z,14.25
2023-06-08T01:11:43.914Z,14.31
2023-06-08T01:14:29.442Z,14.25
2023-06-08T01:17:04.340Z,14.19
2023-06-08T01:20:10.103Z,14.00
2023-06-08T01:22:48.877Z,13.94
2023-06-08T01:25:16.407Z,14.13
2023-06-08T01:27:43.064Z,14.13
2023-06-08T01:30:09.981Z,14.13
2023-06-08T01:32:42.518Z,13.94
2023-06-08T01:35:09.397Z,14.00
2023-06-08T01:37:53.680Z,13.94
2023-06-08T01:40:37.412Z,13.81
2023-06-08T01:43:10.744Z,13.94
2023-06-08T01:45:44.957Z,14.00
2023-06-08T01:48:13.185Z,13.88
2023-06-08T01:50:41.272Z,13.81
2023-06-08T01:53:08.386Z,13.75
2023-06-08T01:55:35.088Z,13.75
2023-06-08T01:58:01.715Z,13.63
2023-06-08T02:00:28.406Z,13.63
2023-06-08T02:02:55.301Z,13.75
2023-06-08T02:05:22.384Z,13.50
2023-06-08T02:07:49.022Z,13.56
2023-06-08T02:10:15.812Z,13.56
2023-06-08T02:12:42.519Z,13.44
2023-06-08T02:15:09.899Z,13.44
2023-06-08T02:17:37.498Z,13.25
2023-06-08T02:20:08.201Z,13.38
2023-06-08T02:22:37.147Z,13.31
2023-06-08T02:25:05.370Z,13.00
2023-06-08T02:27:37.057Z,13.25
2023-06-08T02:30:10.344Z,13.31
2023-06-08T02:32:38.252Z,13.13
2023-06-08T02:35:06.120Z,13.19
2023-06-08T02:37:35.141Z,13.00
2023-06-08T02:40:02.298Z,13.19
2023-06-08T02:42:28.977Z,13.25
2023-06-08T02:44:56.182Z,13.13
2023-06-08T02:47:22.908Z,13.19
2023-06-08T02:49:49.613Z,12.94
2023-06-08T02:52:16.277Z,12.81
2023-06-08T02:54:42.896Z,12.88
2023-06-08T02:57:09.538Z,12.75
2023-06-08T02:59:37.648Z,12.63
2023-06-08T03:02:05.103Z,12.69
2023-06-08T03:04:31.969Z,12.75
2023-06-08T03:06:58.693Z,12.81
2023-06-08T03:09:29.549Z,12.88
2023-06-08T03:11:57.488Z,12.88
2023-06-08T03:14:29.959Z,12.75
2023-06-08T03:17:04.517Z,12.75
2023-06-08T03:19:32.009Z,12.63
2023-06-08T03:22:05.328Z,12.56
2023-06-08T03:24:33.928Z,12.56
2023-06-08T03:27:01.701Z,12.63
2023-06-08T03:29:29.348Z,12.69
2023-06-08T03:31:56.945Z,12.56
2023-06-08T03:34:26.766Z,12.50
2023-06-08T03:36:55.327Z,12.56
2023-06-08T03:39:23.045Z,12.50
2023-06-08T03:41:50.106Z,12.63
2023-06-08T03:44:17.097Z,12.50
2023-06-08T03:46:43.885Z,12.63
2023-06-08T03:49:10.585Z,12.50
2023-06-08T03:51:38.368Z,12.44
2023-06-08T03:54:05.732Z,12.50
2023-06-08T03:56:32.537Z,12.44
2023-06-08T03:58:59.792Z,12.44
2023-06-08T04:01:28.247Z,12.38
2023-06-08T04:03:55.055Z,12.25
2023-06-08T04:06:21.986Z,12.25
2023-06-08T04:08:48.717Z,12.38
2023-06-08T04:11:15.482Z,12.19
2023-06-08T04:13:42.500Z,12.25
2023-06-08T04:16:11.183Z,12.19
2023-06-08T04:18:42.482Z,12.25
2023-06-08T04:21:09.798Z,12.31
2023-06-08T04:23:37.648Z,12.44
2023-06-08T04:26:07.585Z,12.25
2023-06-08T04:28:35.135Z,12.31
2023-06-08T04:31:02.382Z,12.44
2023-06-08T04:33:29.112Z,12.44
2023-06-08T04:35:57.700Z,12.38
2023-06-08T04:38:24.532Z,12.06
2023-06-08T04:40:55.782Z,12.19
2023-06-08T04:43:23.521Z,12.31
2023-06-08T04:46:00.754Z,12.38
2023-06-08T04:48:29.383Z,12.31
2023-06-08T04:51:01.087Z,12.38
2023-06-08T04:53:28.672Z,12.44
2023-06-08T04:55:58.744Z,12.44
2023-06-08T04:58:26.703Z,12.50
2023-06-08T05:00:54.070Z,12.50
2023-06-08T05:03:21.706Z,12.50
2023-06-08T05:05:49.060Z,12.63
2023-06-08T05:08:16.325Z,12.63
2023-06-08T05:10:43.416Z,12.69
2023-06-08T05:13:10.129Z,12.75
2023-06-08T05:15:36.783Z,12.69
2023-06-08T05:18:04.537Z,12.81
2023-06-08T05:20:31.421Z,12.81
2023-06-08T05:22:59.654Z,12.94
2023-06-08T05:25:32.868Z,12.94
2023-06-08T05:27:59.509Z,12.94
2023-06-08T05:30:26.949Z,12.94
2023-06-08T05:32:53.688Z,13.00
2023-06-08T05:35:20.721Z,12.94
2023-06-08T05:37:47.411Z,13.00
2023-06-08T05:40:14.469Z,13.06
2023-06-08T05:42:41.165Z,13.06
2023-06-08T05:45:08.358Z,13.06
2023-06-08T05:47:35.487Z,13.00
2023-06-08T05:50:02.873Z,13.19
2023-06-08T05:52:31.857Z,13.25
2023-06-08T05:54:59.673Z,13.38
2023-06-08T05:57:26.422Z,13.38
2023-06-08T05:59:53.502Z,13.44
2023-06-08T06:02:20.256Z,13.50
2023-06-08T06:04:47.230Z,13.56
2023-06-08T06:07:14.080Z,13.63
2023-06-08T06:09:40.686Z,13.69
2023-06-08T06:12:08.838Z,13.75
2023-06-08T06:14:40.707Z,13.88
2023-06-08T06:17:09.072Z,13.88
2023-06-08T06:19:39.761Z,13.94
2023-06-08T06:22:08.102Z,14.00
2023-06-08T06:24:34.919Z,14.13
2023-06-08T06:27:02.319Z,14.19
2023-06-08T06:29:29.034Z,14.38
2023-06-08T06:31:56.097Z,14.56
2023-06-08T06:34:22.901Z,14.75
2023-06-08T06:36:49.584Z,15.00
2023-06-08T06:39:16.407Z,15.00
2023-06-08T06:41:43.121Z,14.88
2023-06-08T06:44:09.969Z,14.88
2023-06-08T06:46:37.232Z,15.00
2023-06-08T06:49:03.924Z,15.13
2023-06-08T06:51:31.068Z,15.25
2023-06-08T06:53:57.772Z,15.38
2023-06-08T06:56:24.448Z,15.50
2023-06-08T06:58:53.776Z,15.63
2023-06-08T07:01:20.756Z,15.81
2023-06-08T07:03:47.803Z,15.94
2023-06-08T07:06:15.108Z,16.13
2023-06-08T07:08:43.173Z,16.31
2023-06-08T07:11:10.274Z,16.25
2023-06-08T07:13:36.917Z,16.38
2023-06-08T07:16:04.793Z,16.50
2023-06-08T07:18:32.096Z,16.94
2023-06-08T07:20:58.931Z,17.25
2023-06-08T07:23:43.563Z,17.50
2023-06-08T07:26:27.345Z,17.81
2023-06-08T07:28:57.837Z,18.06
2023-06-08T07:31:24.857Z,18.44
2023-06-08T07:33:52.357Z,18.69
2023-06-08T07:36:19.318Z,18.88
2023-06-08T07:38:46.037Z,19.06
2023-06-08T07:41:12.770Z,19.19
2023-06-08T07:43:41.084Z,19.63
2023-06-08T07:46:07.748Z,19.88
2023-06-08T07:48:34.444Z,20.13
2023-06-08T07:51:01.226Z,20.06
2023-06-08T07:53:36.086Z,20.13
2023-06-08T07:56:03.928Z,20.56
2023-06-08T07:58:32.481Z,20.88
2023-06-08T08:01:00.167Z,20.88
2023-06-08T08:03:27.409Z,21.13
2023-06-08T08:05:54.293Z,21.38
2023-06-08T08:08:21.270Z,20.75
2023-06-08T08:10:48.470Z,21.00
2023-06-08T08:13:15.119Z,21.06
2023-06-08T08:15:41.850Z,21.06
2023-06-08T08:18:08.681Z,21.25
2023-06-08T08:20:35.602Z,21.50
2023-06-08T08:23:02.292Z,22.25
2023-06-08T08:25:28.935Z,22.56
2023-06-08T08:27:55.622Z,22.94
2023-06-08T08:30:22.892Z,23.06
2023-06-08T08:32:49.665Z,23.31
2023-06-08T08:35:16.882Z,22.88
2023-06-08T08:37:43.565Z,22.56
2023-06-08T08:40:11.130Z,22.00
2023-06-08T08:42:45.126Z,21.81
2023-06-08T08:45:14.554Z,21.69
2023-06-08T08:47:42.874Z,21.69
2023-06-08T08:50:17.917Z,21.63
2023-06-08T08:52:49.375Z,21.63
2023-06-08T08:55:33.314Z,21.94
2023-06-08T08:58:02.981Z,22.13
2023-06-08T09:00:32.445Z,22.13
2023-06-08T09:03:00.186Z,22.31
2023-06-08T09:05:27.143Z,22.06
2023-06-08T09:07:57.350Z,22.06
2023-06-08T09:10:26.519Z,22.38
2023-06-08T09:12:58.213Z,22.63
2023-06-08T09:15:34.827Z,22.63
2023-06-08T09:18:14.728Z,22.63
2023-06-08T09:20:41.474Z,22.44
2023-06-08T09:23:24.316Z,22.38
2023-06-08T09:25:52.286Z,22.25
2023-06-08T09:28:27.015Z,22.38
2023-06-08T09:30:56.840Z,22.19
2023-06-08T09:33:34.504Z,22.06
2023-06-08T09:36:02.721Z,22.31
2023-06-08T09:38:31.067Z,22.25
2023-06-08T09:41:18.589Z,22.19
2023-06-08T09:43:47.146Z,22.13
2023-06-08T09:46:32.498Z,22.13
2023-06-08T09:48:59.938Z,22.06
2023-06-08T09:51:26.624Z,22.13
2023-06-08T09:53:57.968Z,22.13
2023-06-08T09:56:27.140Z,22.13
2023-06-08T09:58:59.711Z,22.06
2023-06-08T10:01:41.973Z,22.13
2023-06-08T10:04:33.506Z,22.25
2023-06-08T10:07:07.573Z,22.25
2023-06-08T10:09:40.628Z,22.31
2023-06-08T10:12:08.883Z,22.44
2023-06-08T10:14:37.043Z,22.81
2023-06-08T10:17:04.508Z,22.88
2023-06-08T10:19:35.967Z,23.06
2023-06-08T10:22:03.857Z,23.50
2023-06-08T10:24:32.106Z,23.75
2023-06-08T10:27:19.300Z,24.06
2023-06-08T10:29:59.405Z,24.19
2023-06-08T10:32:32.780Z,24.31
2023-06-08T10:35:02.906Z,24.63
2023-06-08T10:37:34.740Z,24.94
2023-06-08T10:40:10.199Z,25.56
2023-06-08T10:42:37.685Z,25.81
2023-06-08T10:45:06.532Z,25.75
2023-06-08T10:47:37.893Z,25.75
2023-06-08T10:50:07.599Z,26.13
2023-06-08T10:53:01.384Z,26.38
2023-06-08T10:55:29.295Z,26.63
2023-06-08T10:57:56.367Z,26.69
2023-06-08T11:00:46.075Z,27.00
2023-06-08T11:03:18.981Z,27.00
2023-06-08T11:05:51.320Z,27.00
2023-06-08T11:08:19.105Z,27.63
2023-06-08T11:10:52.738Z,28.06
2023-06-08T11:13:20.000Z,28.38
2023-06-08T11:15:48.522Z,28.06
2023-06-08T11:18:20.206Z,28.63
2023-06-08T11:20:47.264Z,28.13
2023-06-08T11:23:15.308Z,28.19
2023-06-08T11:25:45.876Z,28.06
2023-06-08T11:28:12.805Z,28.13
2023-06-08T11:30:39.507Z,28.19
2023-06-08T11:33:08.289Z,28.50
2023-06-08T11:35:36.217Z,28.38
2023-06-08T11:38:04.176Z,28.75
2023-06-08T11:40:32.530Z,28.25
2023-06-08T11:42:59.675Z,28.75
2023-06-08T11:45:27.145Z,29.19
2023-06-08T11:48:14.706Z,29.19
2023-06-08T11:50:49.889Z,29.25
2023-06-08T11:53:24.751Z,29.56
2023-06-08T11:55:54.320Z,29.31
2023-06-08T11:58:33.722Z,29.50
2023-06-08T12:01:19.868Z,30.00
2023-06-08T12:03:49.047Z,30.00
2023-06-08T12:06:17.528Z,30.25
2023-06-08T12:08:44.607Z,30.38
2023-06-08T12:11:13.111Z,30.19
2023-06-08T12:13:41.037Z,30.06
2023-06-08T12:16:09.975Z,30.06
2023-06-08T12:18:42.043Z,30.13
2023-06-08T12:21:10.705Z,30.13
2023-06-08T12:23:37.404Z,30.25
2023-06-08T12:26:04.195Z,30.56
2023-06-08T12:28:33.260Z,30.69
2023-06-08T12:31:02.077Z,30.50
2023-06-08T12:33:29.204Z,30.75
2023-06-08T12:35:56.032Z,30.56
2023-06-08T12:38:23.148Z,30.75
2023-06-08T12:40:51.893Z,30.56
2023-06-08T12:43:20.376Z,30.94
2023-06-08T12:45:48.241Z,30.88
2023-06-08T12:48:15.696Z,31.31
2023-06-08T12:50:42.989Z,31.13
2023-06-08T12:53:09.879Z,31.06
2023-06-08T12:55:36.845Z,31.13
2023-06-08T12:58:03.660Z,31.06
2023-06-08T13:00:30.366Z,30.88
2023-06-08T13:02:58.690Z,31.19
2023-06-08T13:05:30.264Z,31.13
2023-06-08T13:08:05.432Z,30.94
2023-06-08T13:10:32.106Z,31.06
2023-06-08T13:13:01.721Z,30.81
2023-06-08T13:15:28.738Z,30.75
2023-06-08T13:17:55.837Z,30.63
2023-06-08T13:20:22.636Z,30.63
2023-06-08T13:22:49.468Z,30.81
2023-06-08T13:25:17.760Z,30.94
2023-06-08T13:27:45.132Z,31.31
2023-06-08T13:30:12.448Z,31.44
2023-06-08T13:32:40.095Z,31.25
2023-06-08T13:35:07.003Z,30.75
2023-06-08T13:37:33.636Z,30.88
2023-06-08T13:40:00.265Z,30.50
2023-06-08T13:42:27.487Z,30.94
2023-06-08T13:44:55.709Z,31.00
2023-06-08T13:47:22.494Z,30.69
2023-06-08T13:49:49.159Z,30.81
2023-06-08T13:52:15.874Z,30.63
2023-06-08T13:54:42.525Z,30.63
2023-06-08T13:57:09.158Z,30.94
2023-06-08T13:59:35.842Z,30.69
2023-06-08T14:02:04.702Z,30.38
2023-06-08T14:04:31.881Z,30.44
2023-06-08T14:06:58.577Z,30.75
2023-06-08T14:09:25.243Z,30.38
2023-06-08T14:11:51.830Z,30.56
2023-06-08T14:14:18.465Z,30.63
2023-06-08T14:16:45.759Z,30.38
2023-06-08T14:19:13.836Z,30.44
2023-06-08T14:21:41.514Z,30.44
2023-06-08T14:24:08.975Z,30.75
2023-06-08T14:26:35.990Z,30.31
2023-06-08T14:29:02.688Z,30.38
2023-06-08T14:31:30.404Z,30.63
2023-06-08T14:33:58.293Z,30.44
2023-06-08T14:36:25.483Z,30.56
2023-06-08T14:38:52.850Z,30.63
2023-06-08T14:41:20.200Z,30.56
2023-06-08T14:43:51.753Z,31.00
2023-06-08T14:46:19.443Z,30.69
2023-06-08T14:48:46.100Z,30.44
2023-06-08T14:51:23.849Z,30.25
2023-06-08T14:53:55.041Z,30.56
2023-06-08T14:56:21.700Z,30.56
2023-06-08T14:58:48.283Z,30.00
2023-06-08T15:01:15.048Z,30.31
2023-06-08T15:03:43.408Z,30.38
2023-06-08T15:06:10.647Z,30.00
2023-06-08T15:08:38.256Z,29.69
2023-06-08T15:11:05.025Z,29.88
2023-06-08T15:13:31.616Z,30.06
2023-06-08T15:15:59.681Z,30.25
2023-06-08T15:18:26.365Z,29.75
2023-06-08T15:20:52.959Z,29.63
2023-06-08T15:23:20.275Z,29.56
2023-06-08T15:25:46.921Z,29.25
2023-06-08T15:28:13.675Z,29.44
2023-06-08T15:30:40.325Z,29.88
2023-06-08T15:33:07.103Z,29.69
2023-06-08T15:35:33.746Z,29.44
2023-06-08T15:38:00.391Z,29.44
2023-06-08T15:40:27.074Z,29.25
2023-06-08T15:42:53.728Z,28.69
2023-06-08T15:45:20.337Z,28.75
2023-06-08T15:47:49.273Z,28.69
2023-06-08T15:50:17.587Z,28.69
2023-06-08T15:52:44.212Z,28.63
2023-06-08T15:55:10.898Z,28.69
2023-06-08T15:57:37.540Z,28.56
2023-06-08T16:00:05.255Z,28.81
2023-06-08T16:02:32.157Z,28.56
2023-06-08T16:04:59.236Z,28.56
2023-06-08T16:07:26.024Z,28.69
2023-06-08T16:09:52.684Z,28.56
2023-06-08T16:12:19.352Z,28.44
2023-06-08T16:14:46.026Z,28.13
2023-06-08T16:17:12.775Z,28.19
2023-06-08T16:19:39.403Z,28.19
2023-06-08T16:22:06.107Z,28.19
2023-06-08T16:24:32.811Z,27.94
2023-06-08T16:26:59.884Z,27.75
2023-06-08T16:29:26.662Z,27.63
2023-06-08T16:31:54.324Z,27.56
2023-06-08T16:34:21.693Z,27.56
2023-06-08T16:36:49.014Z,27.31
2023-06-08T16:39:16.228Z,27.44
2023-06-08T16:41:44.359Z,27.25
2023-06-08T16:44:12.769Z,27.19
2023-06-08T16:46:39.681Z,27.25
2023-06-08T16:49:06.417Z,27.19
2023-06-08T16:51:33.106Z,27.13
2023-06-08T16:53:59.840Z,26.88
2023-06-08T16:56:28.208Z,26.94
2023-06-08T16:58:55.424Z,26.88
2023-06-08T17:01:22.153Z,26.81
2023-06-08T17:03:48.947Z,26.81
2023-06-08T17:06:15.714Z,26.75
2023-06-08T17:08:42.722Z,26.63
2023-06-08T17:11:09.756Z,26.25
2023-06-08T17:13:40.269Z,26.44
2023-06-08T17:16:07.604Z,26.19
2023-06-08T17:18:34.721Z,26.13
2023-06-08T17:21:02.326Z,26.06
2023-06-08T17:23:29.609Z,26.06
2023-06-08T17:25:56.356Z,25.94
2023-06-08T17:28:23.050Z,25.75
2023-06-08T17:30:49.720Z,25.69
2023-06-08T17:33:16.579Z,25.63
2023-06-08T17:35:43.357Z,25.50
2023-06-08T17:38:10.015Z,25.63
2023-06-08T17:40:36.649Z,25.69
2023-06-08T17:43:03.376Z,25.56
2023-06-08T17:45:30.105Z,25.50
2023-06-08T17:47:58.357Z,25.38
2023-06-08T17:50:25.101Z,25.25
2023-06-08T17:53:06.874Z,25.13
2023-06-08T17:55:34.054Z,25.13
2023-06-08T17:58:00.875Z,25.00
2023-06-08T18:00:28.474Z,24.94
2023-06-08T18:02:55.411Z,24.88
2023-06-08T18:05:23.616Z,24.75
2023-06-08T18:07:50.497Z,24.69
2023-06-08T18:10:17.502Z,24.63
2023-06-08T18:12:44.448Z,24.50
2023-06-08T18:15:11.562Z,24.50
2023-06-08T18:17:38.278Z,24.50
2023-06-08T18:20:06.329Z,24.31
2023-06-08T18:22:33.375Z,24.38
2023-06-08T18:25:00.869Z,24.31
2023-06-08T18:27:27.718Z,24.19
2023-06-08T18:29:54.412Z,24.13
2023-06-08T18:32:21.196Z,24.06
2023-06-08T18:34:47.932Z,24.06
2023-06-08T18:37:16.645Z,24.06
2023-06-08T18:39:57.161Z,23.94
2023-06-08T18:42:26.630Z,23.88
2023-06-08T18:44:54.488Z,23.75
2023-06-08T18:47:22.693Z,23.75
2023-06-08T18:49:49.436Z,23.75
2023-06-08T18:52:16.099Z,23.81
2023-06-08T18:54:42.713Z,23.75
2023-06-08T18:57:09.423Z,23.75
2023-06-08T18:59:36.057Z,23.56
2023-06-08T19:02:02.760Z,23.56
2023-06-08T19:04:30.126Z,23.44
2023-06-08T19:06:56.763Z,23.31
2023-06-08T19:09:28.807Z,23.19
2023-06-08T19:11:55.992Z,23.19
2023-06-08T19:14:23.029Z,23.19
2023-06-08T19:16:50.076Z,23.19
2023-06-08T19:19:21.209Z,23.13
2023-06-08T19:21:47.889Z,22.94
2023-06-08T19:24:14.642Z,22.88
2023-06-08T19:26:41.455Z,22.69
2023-06-08T19:29:09.687Z,22.63
2023-06-08T19:31:36.509Z,22.56
2023-06-08T19:34:03.259Z,22.56
2023-06-08T19:36:29.926Z,22.50
2023-06-08T19:38:56.588Z,22.31
2023-06-08T19:41:24.565Z,22.38
2023-06-08T19:43:51.523Z,22.19
2023-06-08T19:46:22.717Z,22.25
2023-06-08T19:48:53.084Z,22.06
2023-06-08T19:51:20.319Z,22.06
2023-06-08T19:53:47.049Z,22.00
2023-06-08T19:56:17.655Z,21.88
2023-06-08T19:58:44.421Z,21.88
2023-06-08T20:01:12.493Z,21.88
2023-06-08T20:03:39.188Z,21.94
2023-06-08T20:06:05.900Z,21.63
2023-06-08T20:08:32.605Z,21.63
2023-06-08T20:10:59.216Z,21.56
2023-06-08T20:13:26.056Z,21.63
2023-06-08T20:15:52.761Z,21.44
2023-06-08T20:18:22.994Z,21.44
2023-06-08T20:20:50.394Z,21.38
2023-06-08T20:23:17.397Z,21.38
2023-06-08T20:25:44.259Z,21.13
2023-06-08T20:28:10.900Z,21.25
2023-06-08T20:30:38.240Z,21.06
2023-06-08T20:33:05.512Z,21.00
2023-06-08T20:35:32.352Z,20.81
2023-06-08T20:37:59.073Z,20.75
2023-06-08T20:40:25.796Z,20.75
2023-06-08T20:42:53.338Z,20.56
2023-06-08T20:45:19.975Z,20.50
2023-06-08T20:47:47.001Z,20.31
2023-06-08T20:50:13.722Z,20.44
2023-06-08T20:52:43.176Z,20.31
2023-06-08T20:55:10.461Z,20.56
2023-06-08T20:57:37.457Z,20.31
2023-06-08T21:00:07.701Z,20.06
2023-06-08T21:02:36.149Z,20.19
2023-06-08T21:05:03.018Z,20.19
2023-06-08T21:07:29.662Z,20.13
2023-06-08T21:09:56.371Z,20.06
2023-06-08T21:12:23.215Z,20.00
2023-06-08T21:14:49.954Z,20.06
2023-06-08T21:17:16.568Z,19.94
2023-06-08T21:19:43.234Z,19.88
2023-06-08T21:22:09.890Z,19.69
2023-06-08T21:24:36.516Z,19.75
2023-06-08T21:27:03.266Z,19.63
2023-06-08T21:29:29.862Z,19.50
2023-06-08T21:31:56.893Z,19.38
2023-06-08T21:34:25.898Z,19.31
2023-06-08T21:36:52.578Z,19.25
2023-06-08T21:39:19.179Z,19.13
2023-06-08T21:41:46.253Z,19.19
2023-06-08T21:44:12.960Z,19.13
2023-06-08T21:46:39.604Z,19.06
2023-06-08T21:49:07.727Z,18.88
2023-06-08T21:51:35.693Z,19.00
2023-06-08T21:54:02.310Z,18.75
2023-06-08T21:56:29.065Z,18.69
2023-06-08T21:58:56.818Z,18.63
2023-06-08T22:01:24.635Z,18.63
2023-06-08T22:03:51.510Z,18.44
2023-06-08T22:06:18.341Z,18.38
2023-06-08T22:08:44.951Z,18.38
2023-06-08T22:11:11.622Z,18.31
2023-06-08T22:13:38.353Z,18.31
2023-06-08T22:16:06.378Z,18.31
2023-06-08T22:18:34.524Z,18.31
2023-06-08T22:21:01.953Z,18.38
2023-06-08T22:23:28.916Z,18.38
2023-06-08T22:25:56.033Z,18.13
2023-06-08T22:28:22.743Z,18.25
2023-06-08T22:30:49.776Z,18.19
2023-06-08T22:33:17.296Z,18.19
2023-06-08T22:35:45.507Z,18.13
2023-06-08T22:38:12.173Z,18.06
2023-06-08T22:40:40.337Z,18.06
2023-06-08T22:43:06.992Z,18.06
2023-06-08T22:45:34.161Z,18.13
2023-06-08T22:48:01.348Z,17.75
2023-06-08T22:50:28.940Z,17.94
2023-06-08T22:52:57.035Z,17.94
2023-06-08T22:55:23.821Z,17.81
2023-06-08T22:57:50.542Z,17.56
2023-06-08T23:00:17.892Z,17.56
2023-06-08T23:02:44.685Z,17.63
2023-06-08T23:05:11.817Z,17.63
2023-06-08T23:07:39.691Z,17.63
2023-06-08T23:10:06.958Z,17.50
2023-06-08T23:12:37.040Z,17.56
2023-06-08T23:15:06.053Z,17.56
2023-06-08T23:17:35.832Z,17.50
2023-06-08T23:20:06.883Z,17.44
2023-06-08T23:22:33.610Z,17.25
2023-06-08T23:25:00.420Z,17.31
2023-06-08T23:27:27.097Z,17.38
2023-06-08T23:29:53.729Z,17.25
2023-06-08T23:32:20.767Z,17.19
2023-06-08T23:34:49.472Z,17.06
2023-06-08T23:37:20.997Z,16.88
2023-06-08T23:39:48.851Z,17.06
2023-06-08T23:42:22.599Z,17.06
2023-06-08T23:44:50.226Z,16.94
2023-06-08T23:47:20.517Z,16.94
2023-06-08T23:49:48.292Z,16.88
2023-06-08T23:52:15.163Z,16.81
2023-06-08T23:54:41.866Z,16.63
2023-06-08T23:57:10.525Z,16.75
2023-06-08T23:59:37.369Z,16.81
